createdAt,value
2019-06-20T00:00:11.243Z,71.46
2019-06-20T00:01:11.218Z,72.56
2019-06-20T00:02:11.195Z,71.96
2019-06-20T00:03:11.199Z,75.37
2019-06-20T00:04:11.148Z,75.77
2019-06-20T00:05:11.138Z,75.67
2019-06-20T00:06:11.099Z,75.27
2019-06-20T00:07:11.079Z,76.37
2019-06-20T00:08:11.077Z,77.31
2019-06-20T00:09:11.033Z,76.37
2019-06-20T00:10:11.013Z,77.37
2019-06-20T00:11:10.987Z,77.21
2019-06-20T00:12:10.966Z,77.67
2019-06-20T00:13:10.962Z,76.31
2019-06-20T00:14:10.923Z,76.11
2019-06-20T00:15:10.894Z,75.01
2019-06-20T00:16:10.872Z,75.51
2019-06-20T00:17:10.855Z,76.45
2019-06-20T00:18:10.855Z,75.04
2019-06-20T00:19:10.812Z,73.00
2019-06-20T00:20:10.781Z,74.60
2019-06-20T00:21:10.761Z,73.70
2019-06-20T00:22:10.739Z,73.10
2019-06-20T00:23:10.740Z,72.30
2019-06-20T00:24:10.688Z,73.07
2019-06-20T00:25:10.677Z,74.57
2019-06-20T00:26:10.645Z,74.47
2019-06-20T00:27:10.619Z,74.67
2019-06-20T00:28:10.618Z,72.77
2019-06-20T00:29:10.580Z,72.80
2019-06-20T00:30:10.550Z,73.67
2019-06-20T00:31:11.112Z,74.87
2019-06-20T00:32:10.505Z,74.37
2019-06-20T00:33:10.522Z,74.47
2019-06-20T00:34:10.466Z,74.57
2019-06-20T00:35:10.442Z,73.47
2019-06-20T00:36:10.420Z,73.57
2019-06-20T00:37:10.393Z,74.47
2019-06-20T00:38:10.368Z,74.57
2019-06-20T00:39:10.380Z,72.97
2019-06-20T00:40:10.323Z,73.97
2019-06-20T00:41:10.304Z,73.36
2019-06-20T00:42:10.279Z,72.16
2019-06-20T00:43:17.278Z,71.26
2019-06-20T00:44:10.274Z,69.42
2019-06-20T00:45:10.208Z,69.09
2019-06-20T00:46:10.188Z,67.79
2019-06-20T00:47:10.166Z,66.86
2019-06-20T00:48:10.136Z,67.16
2019-06-20T00:49:10.138Z,67.55
2019-06-20T00:50:10.099Z,69.56
2019-06-20T00:51:10.072Z,69.56
2019-06-20T00:52:10.050Z,69.56
2019-06-20T00:53:10.033Z,70.86
2019-06-20T00:54:10.025Z,68.96
2019-06-20T00:55:09.979Z,69.16
2019-06-20T00:56:09.976Z,69.76
2019-06-20T00:57:09.950Z,69.79
2019-06-20T00:58:09.961Z,69.56
2019-06-20T00:59:09.913Z,69.69
2019-06-20T01:00:09.867Z,69.99
2019-06-20T01:01:09.845Z,69.89
2019-06-20T01:02:09.822Z,70.29
2019-06-20T01:03:09.795Z,70.59
2019-06-20T01:04:09.797Z,69.59
2019-06-20T01:05:09.802Z,70.09
2019-06-20T01:06:09.736Z,69.42
2019-06-20T01:07:09.703Z,69.99
2019-06-20T01:08:09.680Z,70.43
2019-06-20T01:09:09.688Z,69.59
2019-06-20T01:10:09.634Z,69.69
2019-06-20T01:11:09.613Z,69.42
2019-06-20T01:12:09.587Z,69.42
2019-06-20T01:13:09.567Z,69.32
2019-06-20T01:14:09.655Z,69.12
2019-06-20T01:15:09.520Z,69.82
2019-06-20T01:16:09.502Z,69.32
2019-06-20T01:17:09.472Z,69.62
2019-06-20T01:18:09.484Z,69.42
2019-06-20T01:19:09.453Z,69.53
2019-06-20T01:20:09.426Z,69.76
2019-06-20T01:21:09.386Z,70.16
2019-06-20T01:22:09.355Z,70.26
2019-06-20T01:23:09.334Z,70.06
2019-06-20T01:24:09.337Z,71.00
2019-06-20T01:25:09.289Z,71.30
2019-06-20T01:26:09.264Z,71.20
2019-06-20T01:27:09.240Z,71.90
2019-06-20T01:28:09.212Z,71.39
2019-06-20T01:29:09.227Z,72.24
2019-06-20T01:30:09.239Z,72.70
2019-06-20T01:31:09.146Z,72.53
2019-06-20T01:32:09.126Z,72.63
2019-06-20T01:33:09.100Z,72.83
2019-06-20T01:34:09.101Z,73.27
2019-06-20T01:35:09.049Z,73.13
2019-06-20T01:36:09.025Z,73.67
2019-06-20T01:37:09.004Z,74.68
2019-06-20T01:38:08.980Z,74.48
2019-06-20T01:39:08.980Z,74.07
2019-06-20T01:40:08.927Z,74.61
2019-06-20T01:41:08.913Z,74.61
2019-06-20T01:42:08.885Z,75.21
2019-06-20T01:43:08.860Z,75.01
2019-06-20T01:44:08.872Z,75.62
2019-06-20T01:45:08.809Z,75.75
2019-06-20T01:46:08.787Z,76.21
2019-06-20T01:47:08.763Z,76.35
2019-06-20T01:48:08.755Z,75.85
2019-06-20T01:49:08.769Z,76.35
2019-06-20T01:50:08.720Z,76.56
2019-06-20T01:51:08.672Z,77.06
2019-06-20T01:52:08.643Z,77.09
2019-06-20T01:53:08.624Z,77.26
2019-06-20T01:54:08.595Z,77.20
2019-06-20T01:55:08.597Z,77.39
2019-06-20T01:56:08.558Z,77.90
2019-06-20T01:57:08.534Z,77.90
2019-06-20T01:58:08.514Z,77.59
2019-06-20T01:59:08.482Z,78.40
2019-06-20T02:00:08.479Z,78.60
2019-06-20T02:01:08.430Z,78.50
2019-06-20T02:02:08.414Z,78.44
2019-06-20T02:03:08.383Z,78.34
2019-06-20T02:04:08.357Z,78.60
2019-06-20T02:05:08.357Z,79.04
2019-06-20T02:06:08.308Z,79.50
2019-06-20T02:07:08.289Z,79.54
2019-06-20T02:08:08.282Z,80.05
2019-06-20T02:09:08.235Z,79.74
2019-06-20T02:10:08.243Z,80.15
2019-06-20T02:11:08.193Z,80.15
2019-06-20T02:12:08.238Z,80.49
2019-06-20T02:13:08.141Z,80.29
2019-06-20T02:14:08.117Z,80.58
2019-06-20T02:15:08.115Z,81.49
2019-06-20T02:16:08.067Z,80.99
2019-06-20T02:17:08.044Z,81.70
2019-06-20T02:18:08.033Z,81.03
2019-06-20T02:19:07.997Z,81.39
2019-06-20T02:20:07.992Z,81.73
2019-06-20T02:21:07.951Z,81.93
2019-06-20T02:22:07.972Z,81.84
2019-06-20T02:23:07.900Z,83.04
2019-06-20T02:24:07.873Z,82.98
2019-06-20T02:25:07.882Z,83.28
2019-06-20T02:26:07.823Z,83.39
2019-06-20T02:27:07.832Z,82.78
2019-06-20T02:28:07.778Z,83.39
2019-06-20T02:29:07.752Z,83.39
2019-06-20T02:30:07.762Z,84.29
2019-06-20T02:31:07.706Z,84.23
2019-06-20T02:32:08.642Z,83.93
2019-06-20T02:33:07.659Z,84.74
2019-06-20T02:34:07.630Z,85.34
2019-06-20T02:35:07.631Z,85.34
2019-06-20T02:36:07.584Z,85.28
2019-06-20T02:37:07.558Z,85.38
2019-06-20T02:38:07.659Z,85.78
2019-06-20T02:39:07.526Z,86.08
2019-06-20T02:40:07.521Z,86.29
2019-06-20T02:41:07.464Z,86.08
2019-06-20T02:42:07.485Z,85.88
2019-06-20T02:43:07.426Z,85.78
2019-06-20T02:44:27.819Z,86.08
2019-06-20T02:45:07.391Z,86.29
2019-06-20T02:46:07.340Z,86.49
2019-06-20T02:47:07.320Z,85.78
2019-06-20T02:48:07.291Z,85.68
2019-06-20T02:49:07.267Z,85.64
2019-06-20T02:50:07.266Z,86.15
2019-06-20T02:51:07.230Z,86.29
2019-06-20T02:52:07.193Z,86.29
2019-06-20T02:53:07.165Z,86.24
2019-06-20T02:54:07.151Z,86.29
2019-06-20T02:55:07.139Z,86.49
2019-06-20T02:56:07.098Z,86.38
2019-06-20T02:57:07.086Z,85.94
2019-06-20T02:58:07.050Z,86.24
2019-06-20T02:59:07.023Z,85.74
2019-06-20T03:00:07.036Z,86.15
2019-06-20T03:01:07.025Z,85.20
2019-06-20T03:02:06.947Z,85.10
2019-06-20T03:03:06.941Z,85.10
2019-06-20T03:04:06.900Z,85.20
2019-06-20T03:05:06.876Z,84.89
2019-06-20T03:06:06.882Z,84.89
2019-06-20T03:07:06.834Z,85.20
2019-06-20T03:08:06.802Z,85.05
2019-06-20T03:09:06.774Z,84.89
2019-06-20T03:10:06.755Z,84.80
2019-06-20T03:11:06.752Z,85.30
2019-06-20T03:12:06.704Z,84.95
2019-06-20T03:13:09.450Z,85.10
2019-06-20T03:14:06.657Z,85.70
2019-06-20T03:15:06.635Z,85.30
2019-06-20T03:16:06.651Z,85.20
2019-06-20T03:17:06.591Z,85.00
2019-06-20T03:18:06.559Z,85.40
2019-06-20T03:19:06.566Z,86.10
2019-06-20T03:20:06.579Z,85.90
2019-06-20T03:21:06.508Z,86.00
2019-06-20T03:22:06.480Z,86.00
2019-06-20T03:23:06.433Z,85.70
2019-06-20T03:24:06.408Z,86.41
2019-06-20T03:25:06.386Z,85.70
2019-06-20T03:26:06.387Z,86.10
2019-06-20T03:27:06.352Z,86.21
2019-06-20T03:28:06.316Z,86.24
2019-06-20T03:29:06.288Z,86.10
2019-06-20T03:30:06.280Z,86.15
2019-06-20T03:31:06.274Z,86.95
2019-06-20T03:32:06.229Z,87.15
2019-06-20T03:33:06.221Z,87.15
2019-06-20T03:34:06.171Z,87.15
2019-06-20T03:35:06.182Z,87.15
2019-06-20T03:36:06.156Z,87.45
2019-06-20T03:37:06.091Z,87.65
2019-06-20T03:38:06.081Z,87.76
2019-06-20T03:39:06.081Z,87.76
2019-06-20T03:40:06.019Z,87.45
2019-06-20T03:41:06.016Z,87.96
2019-06-20T03:42:05.975Z,87.45
2019-06-20T03:43:05.948Z,87.41
2019-06-20T03:44:05.929Z,87.31
2019-06-20T03:45:05.925Z,86.71
2019-06-20T03:46:05.902Z,86.91
2019-06-20T03:47:05.853Z,86.61
2019-06-20T03:48:05.832Z,86.30
2019-06-20T03:49:05.810Z,86.61
2019-06-20T03:50:05.782Z,86.41
2019-06-20T03:51:05.793Z,86.30
2019-06-20T03:52:05.729Z,86.21
2019-06-20T03:53:05.714Z,86.10
2019-06-20T03:54:05.683Z,85.76
2019-06-20T03:55:05.657Z,85.66
2019-06-20T03:56:05.664Z,85.96
2019-06-20T03:57:05.607Z,86.02
2019-06-20T03:58:05.616Z,85.62
2019-06-20T03:59:05.566Z,85.22
2019-06-20T04:00:05.537Z,84.97
2019-06-20T04:01:05.538Z,85.17
2019-06-20T04:02:05.493Z,84.37
2019-06-20T04:03:05.471Z,84.94
2019-06-20T04:04:05.445Z,84.23
2019-06-20T04:05:05.418Z,83.43
2019-06-20T04:06:05.416Z,83.53
2019-06-20T04:07:05.371Z,82.72
2019-06-20T04:08:05.347Z,82.98
2019-06-20T04:09:05.323Z,82.98
2019-06-20T04:10:05.319Z,83.04
2019-06-20T04:11:05.301Z,82.54
2019-06-20T04:12:05.250Z,81.88
2019-06-20T04:13:05.226Z,81.84
2019-06-20T04:14:05.203Z,81.14
2019-06-20T04:15:17.914Z,81.40
2019-06-20T04:16:05.211Z,80.36
2019-06-20T04:17:05.133Z,79.82
2019-06-20T04:18:05.110Z,79.86
2019-06-20T04:19:05.088Z,79.02
2019-06-20T04:20:05.068Z,79.02
2019-06-20T04:21:05.066Z,78.18
2019-06-20T04:22:05.026Z,77.44
2019-06-20T04:23:04.995Z,76.26
2019-06-20T04:24:04.982Z,74.49
2019-06-20T04:25:04.955Z,72.52
2019-06-20T04:26:04.949Z,71.49
2019-06-20T04:27:04.906Z,70.53
2019-06-20T04:28:04.886Z,69.49
2019-06-20T04:29:04.868Z,69.53
2019-06-20T04:30:04.844Z,69.56
2019-06-20T04:31:04.844Z,70.99
2019-06-20T04:32:04.795Z,71.42
2019-06-20T04:33:04.771Z,72.02
2019-06-20T04:34:04.754Z,72.13
2019-06-20T04:35:04.731Z,72.42
2019-06-20T04:36:04.746Z,72.22
2019-06-20T04:37:04.696Z,72.19
2019-06-20T04:38:04.672Z,70.26
2019-06-20T04:39:18.361Z,71.26
2019-06-20T04:40:04.724Z,70.83
2019-06-20T04:41:04.628Z,69.59
2019-06-20T04:42:04.579Z,68.86
2019-06-20T04:43:04.570Z,68.13
2019-06-20T04:44:04.538Z,67.54
2019-06-20T04:45:04.521Z,67.40
2019-06-20T04:46:04.710Z,66.71
2019-06-20T04:47:04.476Z,66.47
2019-06-20T04:48:04.496Z,65.68
2019-06-20T04:49:04.524Z,66.01
2019-06-20T04:50:04.463Z,65.81
2019-06-20T04:51:04.475Z,67.10
2019-06-20T04:52:04.371Z,67.54
2019-06-20T04:53:04.352Z,66.94
2019-06-20T04:54:04.340Z,66.74
2019-06-20T04:55:04.315Z,67.27
2019-06-20T04:56:05.816Z,67.66
2019-06-20T04:57:04.314Z,67.47
2019-06-20T04:58:04.253Z,68.19
2019-06-20T04:59:04.258Z,68.00
2019-06-20T05:00:04.227Z,68.23
2019-06-20T05:01:04.200Z,68.93
2019-06-20T05:02:04.220Z,69.16
2019-06-20T05:03:04.160Z,69.76
2019-06-20T05:04:04.131Z,70.09
2019-06-20T05:05:04.125Z,70.39
2019-06-20T05:06:04.092Z,70.99
2019-06-20T05:07:04.097Z,71.12
2019-06-20T05:08:04.048Z,71.33
2019-06-20T05:09:04.097Z,71.92
2019-06-20T05:10:04.020Z,72.06
2019-06-20T05:11:03.991Z,72.16
2019-06-20T05:12:03.989Z,72.76
2019-06-20T05:13:03.950Z,72.79
2019-06-20T05:14:03.928Z,72.89
2019-06-20T05:15:03.904Z,72.59
2019-06-20T05:16:03.890Z,72.89
2019-06-20T05:17:07.035Z,73.69
2019-06-20T05:18:03.849Z,74.29
2019-06-20T05:19:03.836Z,74.19
2019-06-20T05:20:03.814Z,73.49
2019-06-20T05:21:03.781Z,73.89
2019-06-20T05:22:03.800Z,74.49
2019-06-20T05:23:03.754Z,74.29
2019-06-20T05:24:03.720Z,74.19
2019-06-20T05:25:03.702Z,74.43
2019-06-20T05:26:03.710Z,74.22
2019-06-20T05:27:03.729Z,74.53
2019-06-20T05:28:03.630Z,74.26
2019-06-20T05:29:05.479Z,74.56
2019-06-20T05:30:03.598Z,74.37
2019-06-20T05:31:03.572Z,74.87
2019-06-20T05:32:03.600Z,74.46
2019-06-20T05:33:03.562Z,73.46
2019-06-20T05:34:03.504Z,74.43
2019-06-20T05:35:03.485Z,73.43
2019-06-20T05:36:03.459Z,73.89
2019-06-20T05:37:03.488Z,74.49
2019-06-20T05:38:03.424Z,74.39
2019-06-20T05:39:03.396Z,74.39
2019-06-20T05:40:03.368Z,73.89
2019-06-20T05:41:03.357Z,73.39
2019-06-20T05:42:03.342Z,73.29
2019-06-20T05:43:03.688Z,73.89
2019-06-20T05:44:03.288Z,74.19
2019-06-20T05:45:03.264Z,74.39
2019-06-20T05:46:09.260Z,74.49
2019-06-20T05:47:12.650Z,74.69
2019-06-20T05:48:03.247Z,74.49
2019-06-20T05:49:03.191Z,74.59
2019-06-20T05:50:10.218Z,74.29
2019-06-20T05:51:03.144Z,74.39
2019-06-20T05:52:03.159Z,74.39
2019-06-20T05:53:03.091Z,74.29
2019-06-20T05:54:03.118Z,74.39
2019-06-20T05:55:03.112Z,74.55
2019-06-20T05:56:03.028Z,74.55
2019-06-20T05:57:04.525Z,74.26
2019-06-20T05:58:02.985Z,74.46
2019-06-20T05:59:02.965Z,74.46
2019-06-20T06:00:02.986Z,74.69
2019-06-20T06:01:05.739Z,75.09
2019-06-20T06:02:02.919Z,75.13
2019-06-20T06:03:06.831Z,75.33
2019-06-20T06:04:03.003Z,75.09
2019-06-20T06:05:02.833Z,75.19
2019-06-20T06:06:02.808Z,74.69
2019-06-20T06:07:03.299Z,74.73
2019-06-20T06:08:02.764Z,74.53
2019-06-20T06:09:02.749Z,74.43
2019-06-20T06:10:04.453Z,74.56
2019-06-20T06:11:02.700Z,74.66
2019-06-20T06:12:02.720Z,74.56
2019-06-20T06:13:03.075Z,74.26
2019-06-20T06:14:02.675Z,74.37
2019-06-20T06:15:02.609Z,74.37
2019-06-20T06:16:02.591Z,74.26
2019-06-20T06:17:03.532Z,74.46
2019-06-20T06:18:02.651Z,74.66
2019-06-20T06:19:02.525Z,75.87
2019-06-20T06:20:02.497Z,75.76
2019-06-20T06:21:02.473Z,75.76
2019-06-20T06:22:02.492Z,76.90
2019-06-20T06:23:02.442Z,76.60
2019-06-20T06:24:02.442Z,77.70
2019-06-20T06:25:02.410Z,76.70
2019-06-20T06:26:02.366Z,77.20
2019-06-20T06:27:02.377Z,78.00
2019-06-20T06:28:02.313Z,79.34
2019-06-20T06:29:02.300Z,80.04
2019-06-20T06:30:02.275Z,80.65
2019-06-20T06:31:02.254Z,80.38
2019-06-20T06:32:02.272Z,80.38
2019-06-20T06:33:02.257Z,81.52
2019-06-20T06:34:02.182Z,82.87
2019-06-20T06:35:02.158Z,82.37
2019-06-20T06:36:02.129Z,82.57
2019-06-20T06:37:02.111Z,83.17
2019-06-20T06:38:02.128Z,83.61
2019-06-20T06:39:02.068Z,84.01
2019-06-20T06:40:02.049Z,84.35
2019-06-20T06:41:02.091Z,84.61
2019-06-20T06:42:01.993Z,84.55
2019-06-20T06:43:01.983Z,84.95
2019-06-20T06:44:01.958Z,83.25
2019-06-20T06:45:01.924Z,83.81
2019-06-20T06:46:01.957Z,83.51
2019-06-20T06:47:01.883Z,84.01
2019-06-20T06:48:01.858Z,83.81
2019-06-20T06:49:01.844Z,82.90
2019-06-20T06:50:01.806Z,83.01
2019-06-20T06:51:02.096Z,82.81
2019-06-20T06:52:01.767Z,82.84
2019-06-20T06:53:01.749Z,82.90
2019-06-20T06:54:01.714Z,84.91
2019-06-20T06:55:01.715Z,83.31
2019-06-20T06:56:01.711Z,83.55
2019-06-20T06:57:01.651Z,85.05
2019-06-20T06:58:01.823Z,86.26
2019-06-20T06:59:01.637Z,86.76
2019-06-20T07:00:01.576Z,86.90
2019-06-20T07:01:01.552Z,89.31
2019-06-20T07:02:01.551Z,88.55
2019-06-20T07:03:01.548Z,89.66
2019-06-20T07:04:01.542Z,90.26
2019-06-20T07:05:01.499Z,89.66
2019-06-20T07:06:01.479Z,89.76
2019-06-20T07:07:01.414Z,89.76
2019-06-20T07:08:01.389Z,89.80
2019-06-20T07:09:01.375Z,90.26
2019-06-20T07:10:01.380Z,89.56
2019-06-20T07:11:01.363Z,89.86
2019-06-20T07:12:01.305Z,89.42
2019-06-20T07:13:01.268Z,90.62
2019-06-20T07:14:01.298Z,89.72
2019-06-20T07:15:01.227Z,88.27
2019-06-20T07:16:01.202Z,88.47
2019-06-20T07:17:01.172Z,88.63
2019-06-20T07:18:01.190Z,88.53
2019-06-20T07:19:01.142Z,87.48
2019-06-20T07:20:01.109Z,86.08
2019-06-20T07:21:01.091Z,85.88
2019-06-20T07:22:03.816Z,85.88
2019-06-20T07:23:01.088Z,85.88
2019-06-20T07:24:01.106Z,85.94
2019-06-20T07:25:01.023Z,85.44
2019-06-20T07:26:01.035Z,85.49
2019-06-20T07:27:00.941Z,84.19
2019-06-20T07:28:00.950Z,84.03
2019-06-20T07:29:00.918Z,84.69
2019-06-20T07:30:00.923Z,84.69
2019-06-20T07:31:00.853Z,83.79
2019-06-20T07:32:00.830Z,84.79
2019-06-20T07:33:00.804Z,84.74
2019-06-20T07:34:00.830Z,84.93
2019-06-20T07:35:00.757Z,84.93
2019-06-20T07:36:00.760Z,82.79
2019-06-20T07:37:01.685Z,82.89
2019-06-20T07:38:00.697Z,82.85
2019-06-20T07:39:00.676Z,82.41
2019-06-20T07:40:00.697Z,81.67
2019-06-20T07:41:00.621Z,81.07
2019-06-20T07:42:00.598Z,81.37
2019-06-20T07:43:00.591Z,79.93
2019-06-20T07:44:00.560Z,80.49
2019-06-20T07:45:00.600Z,80.89
2019-06-20T07:46:02.872Z,79.69
2019-06-20T07:47:16.258Z,81.29
2019-06-20T07:48:00.467Z,79.19
2019-06-20T07:49:00.492Z,80.59
2019-06-20T07:50:00.481Z,79.43
2019-06-20T07:51:00.404Z,81.03
2019-06-20T07:52:00.378Z,82.63
2019-06-20T07:53:02.570Z,81.33
2019-06-20T07:54:00.338Z,80.77
2019-06-20T07:55:00.369Z,81.03
2019-06-20T07:56:00.372Z,80.99
2019-06-20T07:57:00.273Z,79.89
2019-06-20T07:58:00.287Z,79.46
2019-06-20T07:59:00.234Z,79.65
2019-06-20T08:00:00.282Z,78.39
2019-06-20T08:01:00.187Z,76.79
2019-06-20T08:02:00.164Z,78.09
2019-06-20T08:03:00.161Z,78.59
2019-06-20T08:04:00.126Z,79.29
2019-06-20T08:05:00.132Z,79.96
2019-06-20T08:06:00.735Z,78.05
2019-06-20T08:07:00.056Z,77.72
2019-06-20T08:08:00.038Z,75.26
2019-06-20T08:09:00.013Z,76.28
2019-06-20T08:09:59.999Z,75.28
2019-06-20T08:10:59.990Z,74.35
2019-06-20T08:12:00.000Z,74.91
2019-06-20T08:12:59.925Z,74.32
2019-06-20T08:13:59.908Z,71.69
2019-06-20T08:15:14.059Z,72.99
2019-06-20T08:16:03.973Z,74.32
2019-06-20T08:16:59.844Z,74.76
2019-06-20T08:17:59.826Z,75.96
2019-06-20T08:18:59.844Z,75.35
2019-06-20T08:19:59.805Z,75.32
2019-06-20T08:20:59.760Z,74.85
2019-06-20T08:21:59.742Z,74.52
2019-06-20T08:22:59.725Z,75.62
2019-06-20T08:23:59.696Z,74.52
2019-06-20T08:25:00.964Z,76.02
2019-06-20T08:26:00.528Z,74.29
2019-06-20T08:27:00.419Z,73.15
2019-06-20T08:28:00.795Z,73.22
2019-06-20T08:29:16.257Z,71.92
2019-06-20T08:30:00.920Z,70.99
2019-06-20T08:31:00.523Z,72.05
2019-06-20T08:32:00.960Z,72.22
2019-06-20T08:33:01.366Z,71.19
2019-06-20T08:34:00.472Z,71.15
2019-06-20T08:35:00.552Z,69.32
2019-06-20T08:36:00.493Z,67.83
2019-06-20T08:37:00.545Z,68.37
2019-06-20T08:38:01.000Z,69.26
2019-06-20T08:39:00.239Z,68.04
2019-06-20T08:40:00.019Z,69.32
2019-06-20T08:41:00.199Z,67.90
2019-06-20T08:42:00.497Z,67.40
2019-06-20T08:43:00.210Z,67.77
2019-06-20T08:43:59.819Z,67.47
2019-06-20T08:44:59.503Z,67.47
2019-06-20T08:45:59.545Z,65.65
2019-06-20T08:47:00.647Z,64.76
2019-06-20T08:48:00.096Z,65.35
2019-06-20T08:48:59.503Z,65.12
2019-06-20T08:49:59.767Z,65.22
2019-06-20T08:51:00.086Z,64.92
2019-06-20T08:51:59.231Z,65.42
2019-06-20T08:52:59.772Z,65.22
2019-06-20T08:53:59.299Z,64.59
2019-06-20T08:54:59.614Z,63.80
2019-06-20T08:57:34.266Z,63.77
2019-06-20T08:58:31.640Z,63.45
2019-06-20T08:59:31.632Z,61.96
2019-06-20T09:00:31.639Z,61.93
2019-06-20T09:01:31.589Z,62.15
2019-06-20T09:02:31.567Z,61.89
2019-06-20T09:03:31.596Z,62.29
2019-06-20T09:04:31.563Z,63.80
2019-06-20T09:05:38.628Z,65.19
2019-06-20T09:06:31.488Z,65.09
2019-06-20T09:07:31.470Z,65.09
2019-06-20T09:08:31.452Z,63.90
2019-06-20T09:09:31.469Z,65.02
2019-06-20T09:10:31.412Z,65.52
2019-06-20T09:11:31.439Z,65.92
2019-06-20T09:12:31.374Z,66.02
2019-06-20T09:13:31.356Z,66.31
2019-06-20T09:14:31.386Z,66.22
2019-06-20T09:15:31.401Z,65.99
2019-06-20T09:16:31.299Z,64.76
2019-06-20T09:17:31.285Z,64.95
2019-06-20T09:18:31.268Z,65.85
2019-06-20T09:19:31.247Z,66.25
2019-06-20T09:20:31.252Z,66.38
2019-06-20T09:21:31.210Z,65.65
2019-06-20T09:22:31.195Z,64.92
2019-06-20T09:23:31.175Z,64.40
2019-06-20T09:24:31.157Z,64.17
2019-06-20T09:25:31.344Z,62.95
2019-06-20T09:26:31.141Z,62.23
2019-06-20T09:27:31.101Z,61.60
2019-06-20T09:28:31.088Z,61.33
2019-06-20T09:29:41.378Z,61.53
2019-06-20T09:30:31.071Z,62.02
2019-06-20T09:31:31.029Z,62.62
2019-06-20T09:32:31.020Z,63.61
2019-06-20T09:33:30.996Z,62.02
2019-06-20T09:34:30.974Z,63.64
2019-06-20T09:35:31.009Z,63.57
2019-06-20T09:36:30.941Z,63.70
2019-06-20T09:37:30.920Z,63.77
2019-06-20T09:38:30.901Z,62.29
2019-06-20T09:39:30.915Z,62.24
2019-06-20T09:40:30.889Z,62.24
2019-06-20T09:41:30.851Z,63.40
2019-06-20T09:42:30.829Z,63.21
2019-06-20T09:43:30.813Z,63.40
2019-06-20T09:44:30.797Z,63.18
2019-06-20T09:45:30.932Z,62.29
2019-06-20T09:46:30.759Z,60.80
2019-06-20T09:47:30.748Z,62.12
2019-06-20T09:48:30.728Z,63.57
2019-06-20T09:49:30.705Z,64.30
2019-06-20T09:50:30.727Z,63.08
2019-06-20T09:51:30.668Z,63.67
2019-06-20T09:52:30.648Z,63.40
2019-06-20T09:53:30.636Z,62.24
2019-06-20T09:54:30.608Z,63.27
2019-06-20T09:55:30.662Z,64.66
2019-06-20T09:56:30.600Z,64.36
2019-06-20T09:57:30.576Z,64.59
2019-06-20T09:58:30.550Z,64.86
2019-06-20T09:59:30.518Z,64.36
2019-06-20T10:00:30.503Z,63.89
2019-06-20T10:01:30.511Z,64.42
2019-06-20T10:02:30.472Z,63.92
2019-06-20T10:03:30.443Z,64.72
2019-06-20T10:04:30.423Z,63.79
2019-06-20T10:05:30.429Z,63.89
2019-06-20T10:06:30.414Z,63.10
2019-06-20T10:07:30.369Z,63.49
2019-06-20T10:08:30.346Z,63.76
2019-06-20T10:09:30.329Z,62.87
2019-06-20T10:10:30.350Z,61.48
2019-06-20T10:11:30.311Z,62.34
2019-06-20T10:12:30.286Z,61.94
2019-06-20T10:13:32.632Z,61.65
2019-06-20T10:14:30.232Z,61.55
2019-06-20T10:15:30.241Z,62.34
2019-06-20T10:16:45.004Z,58.77
2019-06-20T10:17:30.172Z,59.76
2019-06-20T10:18:30.157Z,59.96
2019-06-20T10:19:30.137Z,60.26
2019-06-20T10:20:30.165Z,60.96
2019-06-20T10:21:30.118Z,59.96
2019-06-20T10:22:30.082Z,59.86
2019-06-20T10:23:30.075Z,57.21
2019-06-20T10:24:30.048Z,57.41
2019-06-20T10:25:30.030Z,58.80
2019-06-20T10:26:30.021Z,58.40
2019-06-20T10:27:29.991Z,59.30
2019-06-20T10:28:29.972Z,57.58
2019-06-20T10:29:29.955Z,57.08
2019-06-20T10:30:29.930Z,56.41
2019-06-20T10:31:29.926Z,56.38
2019-06-20T10:32:29.885Z,57.38
2019-06-20T10:33:29.871Z,57.70
2019-06-20T10:34:31.198Z,57.31
2019-06-20T10:35:29.827Z,57.51
2019-06-20T10:36:29.840Z,58.33
2019-06-20T10:37:29.789Z,59.09
2019-06-20T10:38:29.767Z,59.59
2019-06-20T10:39:29.750Z,59.30
2019-06-20T10:40:29.742Z,59.79
2019-06-20T10:41:29.742Z,60.75
2019-06-20T10:42:29.693Z,60.46
2019-06-20T10:43:29.671Z,59.96
2019-06-20T10:44:29.680Z,58.17
2019-06-20T10:45:29.702Z,58.07
2019-06-20T10:46:29.633Z,55.19
2019-06-20T10:47:35.069Z,55.69
2019-06-20T10:48:29.573Z,55.12
2019-06-20T10:49:29.566Z,56.51
2019-06-20T10:50:29.543Z,54.33
2019-06-20T10:51:29.547Z,55.12
2019-06-20T10:52:29.498Z,55.02
2019-06-20T10:53:29.531Z,54.55
2019-06-20T10:54:29.514Z,55.42
2019-06-20T10:55:29.445Z,55.91
2019-06-20T10:56:29.452Z,57.01
2019-06-20T10:57:29.437Z,56.14
2019-06-20T10:58:29.436Z,56.81
2019-06-20T10:59:29.373Z,56.38
2019-06-20T11:00:31.856Z,56.68
2019-06-20T11:01:29.318Z,55.49
2019-06-20T11:02:29.321Z,56.68
2019-06-20T11:03:29.296Z,57.06
2019-06-20T11:04:29.265Z,55.36
2019-06-20T11:05:29.241Z,56.66
2019-06-20T11:06:29.223Z,56.26
2019-06-20T11:07:29.236Z,53.58
2019-06-20T11:08:29.199Z,55.04
2019-06-20T11:09:29.163Z,53.26
2019-06-20T11:10:29.146Z,52.47
2019-06-20T11:11:29.128Z,52.26
2019-06-20T11:12:42.565Z,54.13
2019-06-20T11:13:29.091Z,52.54
2019-06-20T11:14:29.069Z,52.71
2019-06-20T11:15:29.847Z,53.70
2019-06-20T11:16:29.032Z,52.09
2019-06-20T11:17:29.050Z,52.78
2019-06-20T11:18:28.994Z,52.88
2019-06-20T11:19:28.973Z,52.76
2019-06-20T11:20:28.954Z,54.32
2019-06-20T11:21:28.934Z,53.13
2019-06-20T11:22:28.939Z,52.93
2019-06-20T11:23:28.894Z,52.14
2019-06-20T11:24:28.879Z,51.84
2019-06-20T11:25:28.861Z,52.26
2019-06-20T11:26:28.914Z,52.07
2019-06-20T11:27:28.843Z,52.86
2019-06-20T11:28:28.865Z,52.83
2019-06-20T11:29:28.784Z,51.42
2019-06-20T11:30:28.768Z,51.03
2019-06-20T11:31:28.753Z,51.30
2019-06-20T11:32:28.751Z,51.18
2019-06-20T11:33:28.712Z,50.78
2019-06-20T11:34:28.694Z,50.46
2019-06-20T11:35:28.685Z,51.23
2019-06-20T11:36:28.661Z,50.71
2019-06-20T11:37:28.665Z,50.12
2019-06-20T11:38:28.635Z,49.13
2019-06-20T11:39:29.351Z,48.54
2019-06-20T11:40:28.596Z,49.03
2019-06-20T11:41:28.572Z,48.04
2019-06-20T11:42:28.576Z,47.82
2019-06-20T11:43:28.536Z,48.79
2019-06-20T11:44:28.526Z,46.99
2019-06-20T11:45:28.506Z,47.09
2019-06-20T11:46:28.499Z,47.28
2019-06-20T11:47:28.491Z,48.07
2019-06-20T11:48:28.458Z,48.66
2019-06-20T11:49:28.454Z,47.56
2019-06-20T11:50:28.423Z,47.85
2019-06-20T11:51:28.407Z,48.14
2019-06-20T11:52:28.437Z,46.65
2019-06-20T11:53:28.380Z,46.57
2019-06-20T11:54:28.363Z,47.24
2019-06-20T11:55:28.342Z,46.55
2019-06-20T11:56:28.331Z,46.55
2019-06-20T11:57:28.340Z,46.33
2019-06-20T11:58:28.294Z,46.33
2019-06-20T11:59:28.284Z,47.41
2019-06-20T12:00:28.263Z,46.11
2019-06-20T12:01:32.768Z,46.62
2019-06-20T12:02:28.257Z,46.33
2019-06-20T12:03:28.218Z,47.61
2019-06-20T12:04:28.218Z,47.24
2019-06-20T12:05:28.204Z,47.34
2019-06-20T12:06:28.180Z,47.95
2019-06-20T12:07:28.157Z,49.55
2019-06-20T12:08:28.165Z,49.35
2019-06-20T12:09:28.122Z,49.26
2019-06-20T12:10:28.107Z,48.17
2019-06-20T12:11:28.123Z,48.37
2019-06-20T12:12:28.085Z,48.57
2019-06-20T12:13:28.082Z,48.10
2019-06-20T12:14:28.049Z,48.79
2019-06-20T12:15:28.029Z,47.11
2019-06-20T12:16:28.029Z,48.79
2019-06-20T12:17:28.009Z,47.90
2019-06-20T12:18:28.017Z,48.57
2019-06-20T12:19:27.971Z,47.97
2019-06-20T12:20:27.954Z,48.52
2019-06-20T12:21:27.941Z,48.05
2019-06-20T12:22:27.919Z,47.73
2019-06-20T12:23:27.930Z,48.00
2019-06-20T12:24:27.985Z,47.49
2019-06-20T12:25:27.871Z,45.89
2019-06-20T12:26:27.858Z,46.60
2019-06-20T12:27:27.849Z,46.48
2019-06-20T12:28:27.859Z,46.50
2019-06-20T12:29:27.873Z,45.79
2019-06-20T12:30:27.807Z,45.30
2019-06-20T12:31:27.786Z,45.72
2019-06-20T12:32:28.317Z,45.74
2019-06-20T12:33:27.778Z,45.94
2019-06-20T12:34:27.749Z,46.65
2019-06-20T12:35:27.725Z,47.56
2019-06-20T12:36:27.718Z,47.28
2019-06-20T12:37:27.696Z,48.47
2019-06-20T12:38:27.706Z,49.18
2019-06-20T12:39:27.703Z,50.29
2019-06-20T12:40:27.650Z,50.31
2019-06-20T12:41:27.680Z,50.90
2019-06-20T12:42:27.619Z,50.90
2019-06-20T12:43:27.711Z,50.61
2019-06-20T12:44:27.614Z,52.09
2019-06-20T12:45:27.583Z,51.79
2019-06-20T12:46:28.380Z,50.61
2019-06-20T12:47:27.545Z,51.79
2019-06-20T12:48:27.549Z,50.83
2019-06-20T12:49:27.512Z,50.63
2019-06-20T12:50:27.496Z,50.76
2019-06-20T12:51:27.493Z,51.05
2019-06-20T12:52:27.464Z,51.18
2019-06-20T12:53:27.481Z,51.18